Time;durP1;ratioP1;P1;durP2;ratioP2;P2;SDS_P1;SDS_P2;PMS_P1;PMS_P2;Temp;Humidity;BMP_temperature;BMP_pressure;BME280_temperature;BME280_humidity;BME280_pressure;Samples;Min_cycle;Max_cycle;Signal;HPM_P1;HPM_P2
2021/08/21 00:01:38;;;;;;;;;;;;;;;22.04;27.78;98039.69;4934470;29;1272;-83
2021/08/21 00:04:03;;;;;;;;;;;;;;;22.20;27.59;98045.34;4934257;29;1872;-83
2021/08/21 00:06:28;;;;;;;;;;;;;;;22.31;27.31;98045.84;4918148;29;958;-82
2021/08/21 00:08:54;;;;;;;;;;;;;;;22.39;26.99;98048.47;4933725;29;949;-83
2021/08/21 00:11:21;;;;;;;;;;;;;;;22.26;27.32;98048.41;4918512;29;1170;-83
2021/08/21 00:13:46;;;;;;;;;;;;;;;22.23;27.61;98033.13;4921973;29;1146;-83
2021/08/21 00:16:11;;;;;;;;;;;;;;;22.24;27.61;98048.88;4934654;29;1191;-81
2021/08/21 00:18:37;;;;;;;;;;;;;;;22.15;27.58;98043.06;4933802;29;806;-83
2021/08/21 00:21:02;;;;;;;;;;;;;;;22.28;27.20;98041.06;4950222;29;893;-83
2021/08/21 00:23:28;;;;;;;;;;;;;;;22.33;27.29;98036.91;4949347;29;1899;-83
2021/08/21 00:25:53;;;;;;;;;;;;;;;22.22;27.41;98042.06;4950436;29;1094;-83
2021/08/21 00:28:19;;;;;;;;;;;;;;;22.28;27.20;98034.63;4933365;29;1191;-81
2021/08/21 00:30:44;;;;;;;;;;;;;;;22.32;27.06;98035.28;4949696;29;766;-83
2021/08/21 00:33:10;;;;;;;;;;;;;;;22.38;27.03;98044.03;4949654;29;685;-83
2021/08/21 00:35:35;;;;;;;;;;;;;;;22.15;27.72;98034.56;4933537;29;978;-83
2021/08/21 00:38:00;;;;;;;;;;;;;;;22.21;27.34;98043.31;4949743;29;871;-84
2021/08/21 00:40:26;;;;;;;;;;;;;;;22.37;27.28;98037.56;4918654;29;1312;-83
2021/08/21 00:42:52;;;;;;;;;;;;;;;22.26;27.46;98037.88;4934202;29;1883;-83
2021/08/21 00:45:17;;;;;;;;;;;;;;;22.27;27.52;98044.34;4933626;29;1294;-83
2021/08/21 00:47:43;;;;;;;;;;;;;;;22.33;27.18;98020.69;4949417;29;920;-82
2021/08/21 00:50:08;;;;;;;;;;;;;;;22.41;27.27;98028.97;4934242;29;1243;-82
2021/08/21 00:52:38;;;;;;;;;;;;;;;22.45;26.84;98026.81;4949656;29;942;-83
2021/08/21 00:55:05;;;;;;;;;;;;;;;22.36;27.31;98035.97;4919657;29;1245;-83
2021/08/21 00:57:31;;;;;;;;;;;;;;;22.20;27.31;98028.34;4949366;29;1227;-83
2021/08/21 00:59:56;;;;;;;;;;;;;;;22.18;27.22;98036.50;4917926;29;1183;-84
2021/08/21 01:02:24;;;;;;;;;;;;;;;22.24;27.33;98034.72;4933773;29;871;-83
2021/08/21 01:04:50;;;;;;;;;;;;;;;22.27;27.26;98016.00;4918093;29;1896;-83
2021/08/21 01:07:19;;;;;;;;;;;;;;;22.26;27.40;98026.53;4933893;29;1274;-82
2021/08/21 01:09:44;;;;;;;;;;;;;;;22.13;27.34;98025.72;4949924;28;798;-83
2021/08/21 01:12:10;;;;;;;;;;;;;;;22.32;27.46;98030.41;4934015;29;1213;-83
2021/08/21 01:14:36;;;;;;;;;;;;;;;22.25;27.54;98019.28;4933313;29;1315;-83
2021/08/21 01:17:02;;;;;;;;;;;;;;;22.34;27.38;98016.59;4949824;29;1252;-83
2021/08/21 01:19:28;;;;;;;;;;;;;;;22.17;28.02;98023.56;4932693;29;1166;-83
2021/08/21 01:21:53;;;;;;;;;;;;;;;22.55;27.48;98020.84;4933014;29;1458;-83
2021/08/21 01:24:20;;;;;;;;;;;;;;;22.58;27.83;98024.78;4933042;29;1896;-83
2021/08/21 01:26:50;;;;;;;;;;;;;;;22.32;27.84;98019.06;4917158;29;1163;-83
2021/08/21 01:29:25;;;;;;;;;;;;;;;22.36;27.91;98014.09;4934492;29;1345;-83
2021/08/21 01:32:01;;;;;;;;;;;;;;;22.32;28.32;98019.06;4934738;29;1519;-82
2021/08/21 01:34:27;;;;;;;;;;;;;;;22.35;28.39;98020.22;4933407;29;1193;-82
2021/08/21 01:36:53;;;;;;;;;;;;;;;22.27;28.33;98010.31;4933368;29;1294;-83
2021/08/21 01:39:36;;;;;;;;;;;;;;;22.33;28.19;98009.34;4935507;29;624;-81
2021/08/21 01:42:11;;;;;;;;;;;;;;;22.31;28.15;98011.81;4920320;29;1175;-82
2021/08/21 01:44:37;;;;;;;;;;;;;;;22.33;28.45;98012.19;4932953;29;1911;-82
2021/08/21 01:47:03;;;;;;;;;;;;;;;22.39;28.19;98011.63;4917358;29;1206;-82
2021/08/21 01:49:29;;;;;;;;;;;;;;;22.38;28.15;98010.00;4932733;29;1143;-81
2021/08/21 01:52:02;;;;;;;;;;;;;;;22.38;28.12;98010.81;4933293;29;1209;-83
2021/08/21 01:54:28;;;;;;;;;;;;;;;22.50;27.87;98012.09;4932086;29;1249;-83
2021/08/21 01:56:54;;;;;;;;;;;;;;;22.50;27.87;98012.09;4917114;29;1245;-83
2021/08/21 01:59:39;;;;;;;;;;;;;;;22.36;28.25;98008.44;4935301;29;1232;-83
2021/08/21 02:02:19;;;;;;;;;;;;;;;22.44;28.01;98003.34;4934859;29;1213;-83
2021/08/21 02:04:53;;;;;;;;;;;;;;;22.25;28.16;97996.63;4918731;29;1982;-83
2021/08/21 02:07:19;;;;;;;;;;;;;;;22.39;28.16;97998.25;4948559;29;1314;-83
2021/08/21 02:09:44;;;;;;;;;;;;;;;22.51;27.77;97993.84;4949191;29;1217;-83
2021/08/21 02:12:12;;;;;;;;;;;;;;;22.33;27.97;98002.88;4949105;29;1159;-83
2021/08/21 02:14:44;;;;;;;;;;;;;;;22.40;28.08;97997.00;4948740;29;1178;-83
2021/08/21 02:17:10;;;;;;;;;;;;;;;22.27;28.10;98005.44;4932995;29;1121;-83
2021/08/21 02:19:46;;;;;;;;;;;;;;;22.43;27.83;98006.63;4933032;29;1257;-82
2021/08/21 02:22:15;;;;;;;;;;;;;;;22.27;28.34;98002.63;4932954;29;1379;-83
2021/08/21 02:24:50;;;;;;;;;;;;;;;22.47;27.65;98002.44;4932438;29;1976;-82
2021/08/21 02:27:16;;;;;;;;;;;;;;;22.50;27.92;98000.75;4918937;29;1324;-83
2021/08/21 02:29:41;;;;;;;;;;;;;;;22.38;27.83;98004.34;4916497;29;1210;-83
2021/08/21 02:32:07;;;;;;;;;;;;;;;22.48;27.61;98000.38;4933291;29;1255;-83
2021/08/21 02:34:33;;;;;;;;;;;;;;;22.46;27.67;98008.56;4932515;29;1223;-83
2021/08/21 02:36:58;;;;;;;;;;;;;;;22.60;27.56;97999.63;4947755;29;1232;-83
2021/08/21 02:39:24;;;;;;;;;;;;;;;22.34;27.98;98005.25;4932179;29;990;-83
2021/08/21 02:41:49;;;;;;;;;;;;;;;22.53;27.61;98000.63;4917318;29;1288;-83
2021/08/21 02:44:15;;;;;;;;;;;;;;;22.45;27.56;98009.81;4931606;29;1911;-82
2021/08/21 02:46:41;;;;;;;;;;;;;;;22.36;27.96;98018.97;4917336;29;1489;-83
2021/08/21 02:49:06;;;;;;;;;;;;;;;22.24;27.97;98012.03;4948320;29;964;-83
2021/08/21 02:51:32;;;;;;;;;;;;;;;22.36;27.69;98008.44;4948201;29;974;-83
2021/08/21 02:53:58;;;;;;;;;;;;;;;22.50;27.64;98012.09;4932074;29;1160;-84
2021/08/21 02:56:23;;;;;;;;;;;;;;;22.54;27.69;98012.78;4933058;29;1176;-83
2021/08/21 02:58:50;;;;;;;;;;;;;;;22.38;28.06;98015.69;4931922;29;1058;-83
2021/08/21 03:01:16;;;;;;;;;;;;;;;22.36;27.73;98008.44;4917289;29;1343;-83
2021/08/21 03:03:42;;;;;;;;;;;;;;;22.42;27.51;98011.50;4932097;29;1883;-84
2021/08/21 03:06:11;;;;;;;;;;;;;;;22.23;27.98;98010.44;4948861;29;1288;-84
2021/08/21 03:08:37;;;;;;;;;;;;;;;22.42;27.56;98008.66;4932750;29;1473;-83
2021/08/21 03:11:03;;;;;;;;;;;;;;;22.41;27.56;98009.13;4949007;29;1151;-83
2021/08/21 03:13:43;;;;;;;;;;;;;;;22.39;27.61;98012.41;4920254;29;1383;-83
2021/08/21 03:16:10;;;;;;;;;;;;;;;22.62;27.49;98008.47;4933212;29;1282;-84
2021/08/21 03:18:36;;;;;;;;;;;;;;;22.41;27.58;98012.75;4917511;29;1252;-84
2021/08/21 03:21:01;;;;;;;;;;;;;;;22.39;27.57;98015.25;4933269;29;1301;-84
2021/08/21 03:23:30;;;;;;;;;;;;;;;22.47;27.38;98021.50;4934025;29;1989;-84
2021/08/21 03:25:56;;;;;;;;;;;;;;;22.43;27.43;98017.97;4948312;29;1321;-82
2021/08/21 03:28:22;;;;;;;;;;;;;;;22.33;27.63;98025.56;4933196;29;1321;-84
2021/08/21 03:30:49;;;;;;;;;;;;;;;22.43;27.82;98023.63;4935047;29;1275;-84
2021/08/21 03:33:19;;;;;;;;;;;;;;;22.35;27.76;98029.53;4922240;29;1219;-84
2021/08/21 03:35:46;;;;;;;;;;;;;;;22.52;27.48;98037.94;4937035;29;1218;-84
2021/08/21 03:38:12;;;;;;;;;;;;;;;22.65;27.17;98046.50;4936535;29;1327;-84
2021/08/21 03:40:50;;;;;;;;;;;;;;;22.67;27.40;98033.44;4924529;29;1487;-84
2021/08/21 03:43:18;;;;;;;;;;;;;;;22.42;27.86;98039.84;4937302;29;1960;-83
2021/08/21 03:45:44;;;;;;;;;;;;;;;22.32;27.74;98047.41;4936599;29;1197;-84
2021/08/21 03:48:12;;;;;;;;;;;;;;;22.40;27.83;98047.22;4921145;29;932;-83
2021/08/21 03:50:38;;;;;;;;;;;;;;;22.44;27.57;98043.03;4920702;29;1293;-84
2021/08/21 03:53:03;;;;;;;;;;;;;;;22.40;27.81;98048.03;4936671;29;1165;-84
2021/08/21 03:55:30;;;;;;;;;;;;;;;22.29;28.12;98056.84;4920780;29;1033;-83
2021/08/21 03:57:58;;;;;;;;;;;;;;;22.40;27.62;98042.34;4920818;29;951;-83
2021/08/21 04:00:24;;;;;;;;;;;;;;;22.33;28.07;98049.03;4935786;29;1421;-84
2021/08/21 04:03:02;;;;;;;;;;;;;;;22.44;27.77;98048.72;4937791;29;1906;-84
2021/08/21 04:05:31;;;;;;;;;;;;;;;22.46;27.48;98042.59;4936278;29;1192;-83
2021/08/21 04:07:56;;;;;;;;;;;;;;;22.55;27.67;98043.53;4936050;29;1251;-83
2021/08/21 04:10:22;;;;;;;;;;;;;;;22.21;28.00;98051.81;4951741;29;1166;-84
2021/08/21 04:12:49;;;;;;;;;;;;;;;22.41;27.78;98048.81;4920744;29;1164;-84
2021/08/21 04:15:15;;;;;;;;;;;;;;;22.34;28.13;98044.94;4935214;29;1205;-83
2021/08/21 04:17:41;;;;;;;;;;;;;;;22.41;27.91;98054.47;4934760;29;1261;-83
2021/08/21 04:20:08;;;;;;;;;;;;;;;22.26;28.09;98054.88;4951186;29;930;-83
2021/08/21 04:22:37;;;;;;;;;;;;;;;22.39;28.18;98048.47;4920870;29;1189;-83
2021/08/21 04:25:03;;;;;;;;;;;;;;;22.42;28.17;98053.22;4919345;29;1879;-83
2021/08/21 04:27:29;;;;;;;;;;;;;;;22.22;28.44;98059.84;4935288;29;1170;-83
2021/08/21 04:29:54;;;;;;;;;;;;;;;22.36;28.36;98053.00;4934622;29;1399;-83
2021/08/21 04:32:20;;;;;;;;;;;;;;;22.35;28.12;98051.41;4935027;29;1235;-82
2021/08/21 04:34:46;;;;;;;;;;;;;;;22.55;27.82;98056.91;4935816;29;1242;-84
2021/08/21 04:37:14;;;;;;;;;;;;;;;22.57;27.87;98058.03;4950487;29;1169;-83
2021/08/21 04:39:41;;;;;;;;;;;;;;;22.32;28.50;98055.13;4919621;29;1265;-83
2021/08/21 04:42:07;;;;;;;;;;;;;;;22.44;28.16;98062.88;4934926;29;1363;-83
2021/08/21 04:44:33;;;;;;;;;;;;;;;22.48;28.20;98063.56;4918908;29;1946;-82
2021/08/21 04:47:00;;;;;;;;;;;;;;;22.41;28.57;98071.50;4919529;29;1161;-83
2021/08/21 04:49:26;;;;;;;;;;;;;;;22.41;28.30;98066.63;4919134;29;1507;-84
2021/08/21 04:51:52;;;;;;;;;;;;;;;22.61;28.21;98061.56;4934354;29;1183;-83
2021/08/21 04:54:20;;;;;;;;;;;;;;;22.59;28.24;98068.94;4935264;29;995;-83
2021/08/21 04:56:47;;;;;;;;;;;;;;;22.49;28.87;98064.38;4918765;29;1158;-83
2021/08/21 04:59:35;;;;;;;;;;;;;;;22.64;28.33;98065.56;4944929;29;1060;-83
2021/08/21 05:02:04;;;;;;;;;;;;;;;22.55;28.90;98066.22;4935257;29;1209;-83
2021/08/21 05:04:30;;;;;;;;;;;;;;;22.39;29.04;98074.00;4932957;29;1907;-83
2021/08/21 05:06:56;;;;;;;;;;;;;;;22.34;29.06;98078.97;4933910;29;1323;-83
2021/08/21 05:09:23;;;;;;;;;;;;;;;22.54;28.60;98069.50;4934414;29;1204;-83
2021/08/21 05:11:53;;;;;;;;;;;;;;;22.74;28.63;98078.63;4934660;29;1303;-83
2021/08/21 05:14:18;;;;;;;;;;;;;;;22.52;28.88;98069.13;4934219;29;1460;-83
2021/08/21 05:16:46;;;;;;;;;;;;;;;22.47;28.83;98069.69;4933120;29;1376;-83
2021/08/21 05:19:39;;;;;;;;;;;;;;;22.47;29.22;98081.03;4936312;29;866;-83
2021/08/21 05:22:23;;;;;;;;;;;;;;;22.51;28.95;98090.25;4935661;29;1292;-83
2021/08/21 05:24:55;;;;;;;;;;;;;;;22.47;29.36;98089.53;4933130;29;1958;-82
2021/08/21 05:27:22;;;;;;;;;;;;;;;22.39;29.26;98079.66;4933585;29;844;-84
2021/08/21 05:29:47;;;;;;;;;;;;;;;22.46;29.30;98085.91;4949652;29;1137;-83
2021/08/21 05:32:14;;;;;;;;;;;;;;;22.44;29.54;98076.28;4949360;29;1500;-83
2021/08/21 05:34:40;;;;;;;;;;;;;;;22.44;29.24;98082.75;4917250;29;1277;-83
2021/08/21 05:37:06;;;;;;;;;;;;;;;22.35;29.42;98086.22;4933841;29;857;-85
2021/08/21 05:39:34;;;;;;;;;;;;;;;22.54;29.52;98114.88;4933754;29;817;-82
2021/08/21 05:42:00;;;;;;;;;;;;;;;22.64;29.39;98091.09;4918383;29;1174;-84
2021/08/21 05:44:25;;;;;;;;;;;;;;;22.59;29.18;98088.81;4949530;29;1962;-84
2021/08/21 05:46:51;;;;;;;;;;;;;;;22.62;29.22;98093.56;4918638;29;1232;-84
2021/08/21 05:49:17;;;;;;;;;;;;;;;22.63;29.20;98089.47;4933840;29;1331;-84
2021/08/21 05:51:42;;;;;;;;;;;;;;;22.52;29.51;98086.94;4918386;29;1313;-83
2021/08/21 05:54:08;;;;;;;;;;;;;;;22.59;29.50;98088.81;4947569;29;898;-83
2021/08/21 05:56:33;;;;;;;;;;;;;;;22.63;29.13;98083.78;4933141;29;760;-83
2021/08/21 05:58:58;;;;;;;;;;;;;;;22.45;29.44;98089.19;4949266;29;710;-83
2021/08/21 06:01:24;;;;;;;;;;;;;;;22.54;29.45;98092.19;4949430;29;739;-83
2021/08/21 06:03:51;;;;;;;;;;;;;;;22.48;29.36;98093.97;4947328;29;1902;-81
2021/08/21 06:06:19;;;;;;;;;;;;;;;22.55;29.59;98094.56;4932055;29;869;-83
2021/08/21 06:08:45;;;;;;;;;;;;;;;22.49;29.37;98092.75;4933165;29;1335;-81
2021/08/21 06:11:10;;;;;;;;;;;;;;;22.56;29.35;98093.31;4932655;29;1304;-83
2021/08/21 06:13:38;;;;;;;;;;;;;;;22.63;29.44;98090.25;4932279;29;1501;-82
2021/08/21 06:16:04;;;;;;;;;;;;;;;22.51;29.59;98099.53;4932547;29;1144;-82
2021/08/21 06:18:30;;;;;;;;;;;;;;;22.69;29.13;98098.22;4946862;29;935;-83
2021/08/21 06:20:56;;;;;;;;;;;;;;;22.70;29.11;98094.94;4916326;29;1178;-84
2021/08/21 06:23:21;;;;;;;;;;;;;;;22.71;29.03;98096.53;4930113;29;1979;-82
2021/08/21 06:25:47;;;;;;;;;;;;;;;22.66;29.48;98096.28;4948389;29;908;-81
2021/08/21 06:28:13;;;;;;;;;;;;;;;22.83;29.03;98104.25;4931904;29;1190;-82
2021/08/21 06:30:38;;;;;;;;;;;;;;;22.72;29.04;98103.78;4931075;29;847;-81
2021/08/21 06:33:04;;;;;;;;;;;;;;;22.75;29.05;98102.09;4914641;29;1313;-81
2021/08/21 06:35:29;;;;;;;;;;;;;;;22.86;28.85;98099.75;4930355;29;934;-81
2021/08/21 06:37:55;;;;;;;;;;;;;;;22.80;29.15;98099.50;4946220;29;820;-83
2021/08/21 06:40:20;;;;;;;;;;;;;;;22.65;29.40;98101.16;4932193;29;1142;-83
2021/08/21 06:42:45;;;;;;;;;;;;;;;22.50;29.52;98102.81;4917697;29;1124;-83
2021/08/21 06:45:19;;;;;;;;;;;;;;;22.85;28.94;98096.13;4933687;29;1915;-83
2021/08/21 06:47:45;;;;;;;;;;;;;;;22.82;29.07;98096.22;4948625;29;984;-84
2021/08/21 06:50:11;;;;;;;;;;;;;;;22.80;29.37;98105.19;4948226;29;1002;-83
2021/08/21 06:52:36;;;;;;;;;;;;;;;22.69;29.64;98101.03;4931961;29;876;-83
2021/08/21 06:55:02;;;;;;;;;;;;;;;22.61;29.53;98115.44;4930242;29;1230;-81
2021/08/21 06:57:28;;;;;;;;;;;;;;;22.68;29.59;98113.66;4946381;29;859;-82
2021/08/21 06:59:57;;;;;;;;;;;;;;;22.56;29.75;98112.38;4916611;29;1355;-83
2021/08/21 07:02:22;;;;;;;;;;;;;;;22.71;29.37;98102.19;4949014;29;855;-84
2021/08/21 07:04:48;;;;;;;;;;;;;;;22.81;29.26;98106.75;4931932;29;1978;-81
2021/08/21 07:07:13;;;;;;;;;;;;;;;22.76;29.21;98110.16;4949178;29;919;-82
2021/08/21 07:09:39;;;;;;;;;;;;;;;22.86;29.48;98109.03;4951184;29;931;-83
2021/08/21 07:12:04;;;;;;;;;;;;;;;22.82;29.55;98113.22;4921022;29;1106;-83
2021/08/21 07:14:29;;;;;;;;;;;;;;;22.69;29.58;98121.72;4952184;29;1426;-83
2021/08/21 07:16:55;;;;;;;;;;;;;;;22.84;29.66;98122.88;4951458;29;721;-82
2021/08/21 07:19:21;;;;;;;;;;;;;;;22.76;29.24;98115.84;4951172;29;828;-83
2021/08/21 07:21:46;;;;;;;;;;;;;;;23.00;28.95;98118.38;4936305;29;892;-84
2021/08/21 07:24:11;;;;;;;;;;;;;;;22.81;29.22;98120.94;4920480;29;2002;-83
2021/08/21 07:26:37;;;;;;;;;;;;;;;22.68;29.68;98122.16;4952238;29;652;-83
2021/08/21 07:29:02;;;;;;;;;;;;;;;22.61;29.76;98121.13;4951906;29;769;-83
2021/08/21 07:31:28;;;;;;;;;;;;;;;22.75;29.44;98125.59;4935510;29;1056;-83
2021/08/21 07:33:53;;;;;;;;;;;;;;;22.54;29.98;98126.22;4935884;29;953;-83
2021/08/21 07:36:19;;;;;;;;;;;;;;;22.73;29.65;98128.06;4935441;29;1317;-82
2021/08/21 07:38:52;;;;;;;;;;;;;;;22.74;29.71;98129.69;4951611;29;867;-82
2021/08/21 07:41:18;;;;;;;;;;;;;;;22.71;29.50;98126.94;4935654;29;883;-83
2021/08/21 07:43:43;;;;;;;;;;;;;;;22.73;29.44;98128.06;4935389;29;1891;-84
2021/08/21 07:46:09;;;;;;;;;;;;;;;22.76;29.49;98129.22;4951775;29;671;-83
2021/08/21 07:48:34;;;;;;;;;;;;;;;22.75;29.50;98131.28;4919663;29;1302;-83
2021/08/21 07:51:00;;;;;;;;;;;;;;;22.77;29.54;98131.59;4950276;29;930;-83
2021/08/21 07:53:25;;;;;;;;;;;;;;;22.72;29.66;98132.16;4950970;29;1001;-83
2021/08/21 07:55:51;;;;;;;;;;;;;;;22.64;29.99;98127.94;4919850;29;1263;-83
2021/08/21 07:58:16;;;;;;;;;;;;;;;22.80;29.64;98121.41;4935066;29;1420;-83
2021/08/21 08:00:42;;;;;;;;;;;;;;;22.55;29.97;98127.81;4935570;29;1150;-83
2021/08/21 08:03:11;;;;;;;;;;;;;;;22.78;29.56;98115.38;4950624;29;1982;-82
2021/08/21 08:05:37;;;;;;;;;;;;;;;22.79;29.56;98120.59;4950700;29;1277;-84
2021/08/21 08:08:03;;;;;;;;;;;;;;;22.65;29.72;98123.88;4917247;29;1344;-82
2021/08/21 08:10:28;;;;;;;;;;;;;;;22.59;29.88;98132.13;4934263;29;1256;-81
2021/08/21 08:12:54;;;;;;;;;;;;;;;22.76;29.54;98126.38;4934218;29;910;-83
2021/08/21 08:15:19;;;;;;;;;;;;;;;22.88;29.58;98123.59;4950690;29;691;-83
2021/08/21 08:17:45;;;;;;;;;;;;;;;22.73;29.49;98130.91;4948385;29;1232;-81
2021/08/21 08:20:10;;;;;;;;;;;;;;;22.72;29.67;98120.81;4932508;29;1158;-81
2021/08/21 08:22:36;;;;;;;;;;;;;;;22.75;29.58;98119.91;4949963;29;1179;-83
2021/08/21 08:25:01;;;;;;;;;;;;;;;22.84;29.36;98105.84;4949222;29;1879;-83
2021/08/21 08:27:27;;;;;;;;;;;;;;;22.84;29.52;98117.19;4934786;29;805;-83
2021/08/21 08:29:52;;;;;;;;;;;;;;;22.80;29.73;98116.53;4933895;29;1138;-82
2021/08/21 08:32:18;;;;;;;;;;;;;;;22.82;29.47;98113.22;4949176;29;854;-83
2021/08/21 08:34:43;;;;;;;;;;;;;;;22.74;29.69;98118.34;4949016;29;855;-82
2021/08/21 08:37:12;;;;;;;;;;;;;;;22.72;29.70;98123.66;4949494;29;939;-82
2021/08/21 08:39:41;;;;;;;;;;;;;;;22.69;29.67;98127.41;4947200;29;683;-83
2021/08/21 08:42:07;;;;;;;;;;;;;;;22.75;29.92;98124.81;4949762;29;773;-83
2021/08/21 08:44:32;;;;;;;;;;;;;;;22.86;29.80;98123.22;4933154;29;1945;-83
2021/08/21 08:46:58;;;;;;;;;;;;;;;22.74;29.85;98117.50;4917168;29;1168;-83
2021/08/21 08:49:24;;;;;;;;;;;;;;;22.81;29.88;98117.31;4948374;29;856;-81
2021/08/21 08:51:50;;;;;;;;;;;;;;;22.96;29.29;98118.50;4933015;29;1185;-82
2021/08/21 08:54:15;;;;;;;;;;;;;;;22.94;29.41;98106.00;4947778;29;741;-82
2021/08/21 08:56:41;;;;;;;;;;;;;;;22.80;29.62;98115.72;4949045;29;892;-82
2021/08/21 08:59:06;;;;;;;;;;;;;;;22.75;29.65;98114.25;4948668;29;929;-83
2021/08/21 09:01:32;;;;;;;;;;;;;;;22.87;29.75;98115.50;4949142;29;1118;-83
2021/08/21 09:04:19;;;;;;;;;;;;;;;23.09;29.46;98118.53;4948167;29;1898;-83
2021/08/21 09:06:45;;;;;;;;;;;;;;;23.01;29.49;98108.66;4949189;29;778;-83
2021/08/21 09:09:14;;;;;;;;;;;;;;;22.95;29.87;98110.44;4948837;29;644;-82
2021/08/21 09:11:42;;;;;;;;;;;;;;;22.74;29.85;98112.66;4949126;29;908;-83
2021/08/21 09:14:19;;;;;;;;;;;;;;;22.84;29.88;98116.41;4946860;29;975;-83
2021/08/21 09:16:45;;;;;;;;;;;;;;;22.98;29.50;98120.91;4949550;29;1088;-83
2021/08/21 09:19:10;;;;;;;;;;;;;;;22.95;29.42;98116.94;4931914;29;1173;-82
2021/08/21 09:21:36;;;;;;;;;;;;;;;22.88;29.43;98111.44;4931137;29;710;-81
2021/08/21 09:24:18;;;;;;;;;;;;;;;23.01;29.59;98108.66;4947542;29;1964;-82
2021/08/21 09:26:43;;;;;;;;;;;;;;;23.03;29.51;98106.16;4948934;29;1323;-83
2021/08/21 09:29:09;;;;;;;;;;;;;;;22.88;29.46;98112.25;4946531;29;604;-82
2021/08/21 09:31:36;;;;;;;;;;;;;;;22.81;29.77;98112.44;4932322;29;1319;-82
2021/08/21 09:34:07;;;;;;;;;;;;;;;22.94;29.61;98108.84;4947385;29;952;-82
2021/08/21 09:36:34;;;;;;;;;;;;;;;22.86;29.73;98120.41;4930578;29;1023;-79
2021/08/21 09:38:59;;;;;;;;;;;;;;;23.06;29.39;98117.41;4930311;29;818;-82
2021/08/21 09:41:25;;;;;;;;;;;;;;;23.08;29.25;98114.88;4947666;29;839;-82
2021/08/21 09:44:01;;;;;;;;;;;;;;;23.00;29.61;98112.72;4931920;29;1966;-82
2021/08/21 09:46:27;;;;;;;;;;;;;;;22.88;29.75;98100.09;4947963;29;939;-82
2021/08/21 09:48:56;;;;;;;;;;;;;;;22.84;29.81;98093.72;4930909;29;911;-83
2021/08/21 09:51:41;;;;;;;;;;;;;;;22.92;29.97;98117.03;4947666;29;1277;-81
2021/08/21 09:54:07;;;;;;;;;;;;;;;22.86;29.81;98111.88;4947335;29;947;-83
2021/08/21 09:56:37;;;;;;;;;;;;;;;22.88;29.71;98112.25;4947651;29;892;-81
2021/08/21 09:59:02;;;;;;;;;;;;;;;22.99;29.70;98113.97;4931351;29;771;-82
2021/08/21 10:01:28;;;;;;;;;;;;;;;22.88;29.77;98105.78;4931069;29;986;-82
2021/08/21 10:03:54;;;;;;;;;;;;;;;22.88;30.01;98097.25;4915076;29;1899;-82
2021/08/21 10:06:20;;;;;;;;;;;;;;;23.03;29.61;98106.16;4932258;29;1148;-82
2021/08/21 10:08:45;;;;;;;;;;;;;;;23.06;29.81;98105.25;4946458;29;743;-82
2021/08/21 10:11:11;;;;;;;;;;;;;;;23.10;29.48;98111.59;4947965;29;679;-82
2021/08/21 10:13:37;;;;;;;;;;;;;;;22.96;29.90;98106.38;4952095;29;1281;-82
2021/08/21 10:16:07;;;;;;;;;;;;;;;22.95;29.64;98104.75;4950182;29;1290;-82
2021/08/21 10:18:32;;;;;;;;;;;;;;;23.01;29.74;98102.97;4981921;28;831;-82
2021/08/21 10:20:57;;;;;;;;;;;;;;;22.94;29.63;98097.50;4966463;29;1282;-82
2021/08/21 10:23:26;;;;;;;;;;;;;;;22.96;29.89;98100.69;4982257;28;1891;-82
2021/08/21 10:26:02;;;;;;;;;;;;;;;22.89;30.03;98098.84;4982904;28;800;-83
2021/08/21 10:28:31;;;;;;;;;;;;;;;22.98;30.10;98101.03;4981999;28;997;-82
2021/08/21 10:30:57;;;;;;;;;;;;;;;22.97;29.95;98097.41;4982694;28;869;-82
2021/08/21 10:33:22;;;;;;;;;;;;;;;22.91;30.14;98092.75;4966330;29;703;-82
2021/08/21 10:35:53;;;;;;;;;;;;;;;22.95;30.08;98099.09;4982913;28;747;-82
2021/08/21 10:38:35;;;;;;;;;;;;;;;23.00;29.81;98107.03;4950286;28;1304;-83
2021/08/21 10:41:21;;;;;;;;;;;;;;;22.99;29.90;98089.22;4971926;28;655;-83
2021/08/21 10:43:50;;;;;;;;;;;;;;;23.13;29.85;98088.00;4963349;28;1910;-82
2021/08/21 10:46:31;;;;;;;;;;;;;;;22.99;30.03;98094.09;4985990;28;1069;-82
2021/08/21 10:49:03;;;;;;;;;;;;;;;23.02;29.95;98090.38;4970689;29;679;-82
2021/08/21 10:51:41;;;;;;;;;;;;;;;22.85;30.31;98093.28;4986398;28;907;-82
2021/08/21 10:54:19;;;;;;;;;;;;;;;23.24;29.59;98094.13;4985965;28;675;-83
2021/08/21 10:56:45;;;;;;;;;;;;;;;23.21;29.85;98097.88;4954594;29;1287;-82
2021/08/21 10:59:11;;;;;;;;;;;;;;;22.98;29.93;98087.63;4984857;28;858;-82
2021/08/21 11:01:36;;;;;;;;;;;;;;;23.01;29.89;98088.78;4985698;28;881;-82
2021/08/21 11:04:02;;;;;;;;;;;;;;;22.95;30.32;98094.22;4970061;29;1981;-83
2021/08/21 11:06:28;;;;;;;;;;;;;;;23.04;30.14;98090.69;4985836;28;740;-82
2021/08/21 11:08:58;;;;;;;;;;;;;;;23.07;29.96;98084.13;4970301;28;639;-82
2021/08/21 11:11:33;;;;;;;;;;;;;;;23.23;29.73;98081.19;4954216;29;1196;-83
2021/08/21 11:14:08;;;;;;;;;;;;;;;22.85;30.22;98083.97;4969586;29;1154;-83
2021/08/21 11:16:50;;;;;;;;;;;;;;;22.94;30.10;98091.81;4969758;29;1339;-83
2021/08/21 11:19:22;;;;;;;;;;;;;;;22.84;30.56;98083.16;4970186;28;825;-83
2021/08/21 11:21:48;;;;;;;;;;;;;;;22.98;30.43;98078.31;4970294;29;647;-82
2021/08/21 11:24:23;;;;;;;;;;;;;;;23.14;29.95;98083.91;4969096;29;1914;-82
2021/08/21 11:26:49;;;;;;;;;;;;;;;23.06;30.12;98091.84;4969510;29;967;-82
2021/08/21 11:29:16;;;;;;;;;;;;;;;23.18;30.12;98095.16;4983903;28;935;-81
2021/08/21 11:31:51;;;;;;;;;;;;;;;23.18;29.92;98089.47;4952996;29;1325;-83
2021/08/21 11:34:16;;;;;;;;;;;;;;;23.03;30.27;98077.75;4985079;28;841;-81
2021/08/21 11:36:42;;;;;;;;;;;;;;;22.95;30.20;98073.53;4968823;29;975;-81
2021/08/21 11:39:14;;;;;;;;;;;;;;;23.14;29.93;98070.50;4954358;29;1292;-81
2021/08/21 11:41:39;;;;;;;;;;;;;;;23.14;30.00;98078.22;4970088;28;651;-82
2021/08/21 11:44:05;;;;;;;;;;;;;;;23.02;30.22;98079.81;4984692;28;1895;-82
2021/08/21 11:46:30;;;;;;;;;;;;;;;23.24;29.72;98077.09;4969004;29;918;-82
2021/08/21 11:49:04;;;;;;;;;;;;;;;23.16;29.96;98067.22;4969031;29;839;-83
2021/08/21 11:51:33;;;;;;;;;;;;;;;23.21;29.74;98068.66;4984244;28;657;-82
2021/08/21 11:53:58;;;;;;;;;;;;;;;23.26;29.88;98068.09;4984395;28;592;-82
2021/08/21 11:56:24;;;;;;;;;;;;;;;23.18;30.12;98067.56;4968970;29;1175;-82
2021/08/21 11:58:50;;;;;;;;;;;;;;;23.08;30.27;98063.00;4968172;29;951;-81
2021/08/21 12:01:18;;;;;;;;;;;;;;;23.03;30.39;98069.25;4968352;29;963;-82
2021/08/21 12:06:26;;;;;;;;;;;;;;;23.12;29.94;98069.38;4969416;28;679;-82
2021/08/21 12:08:52;;;;;;;;;;;;;;;22.99;30.46;98065.72;4968182;28;722;-82
2021/08/21 12:11:18;;;;;;;;;;;;;;;23.07;30.26;98062.22;4984469;28;627;-81
2021/08/21 12:13:43;;;;;;;;;;;;;;;22.99;30.27;98065.72;4984195;28;1001;-82
2021/08/21 12:16:12;;;;;;;;;;;;;;;23.00;30.36;98055.97;4952668;29;1149;-82
2021/08/21 12:18:38;;;;;;;;;;;;;;;23.08;30.07;98055.28;4983806;28;738;-82
2021/08/21 12:21:04;;;;;;;;;;;;;;;23.13;30.04;98054.72;4984326;28;852;-82
2021/08/21 12:23:30;;;;;;;;;;;;;;;23.22;29.83;98054.03;4967003;29;1951;-82
2021/08/21 12:25:57;;;;;;;;;;;;;;;23.21;30.08;98055.31;4983931;28;953;-82
2021/08/21 12:28:23;;;;;;;;;;;;;;;23.16;30.21;98047.34;4967711;28;683;-82
2021/08/21 12:30:55;;;;;;;;;;;;;;;23.19;29.86;98046.44;4967337;29;829;-80
2021/08/21 12:33:34;;;;;;;;;;;;;;;23.32;29.67;98060.63;4982230;28;723;-80
2021/08/21 12:36:08;;;;;;;;;;;;;;;23.30;29.84;98052.53;4967108;29;948;-81
2021/08/21 12:38:34;;;;;;;;;;;;;;;23.07;30.30;98055.75;4965752;29;982;-82
2021/08/21 12:41:06;;;;;;;;;;;;;;;22.99;30.35;98051.53;4983270;28;866;-82
2021/08/21 12:43:32;;;;;;;;;;;;;;;23.18;30.08;98050.53;4981606;28;1965;-81
2021/08/21 12:45:57;;;;;;;;;;;;;;;23.11;30.19;98060.06;4966510;29;889;-82
2021/08/21 12:48:23;;;;;;;;;;;;;;;23.09;30.35;98054.03;4982701;28;667;-82
2021/08/21 12:50:48;;;;;;;;;;;;;;;23.27;29.78;98052.69;4983116;28;892;-82
2021/08/21 12:53:16;;;;;;;;;;;;;;;23.22;30.06;98050.41;4950178;29;913;-80
2021/08/21 12:55:42;;;;;;;;;;;;;;;23.08;30.46;98051.66;4983003;28;851;-82
2021/08/21 12:58:08;;;;;;;;;;;;;;;23.07;30.33;98050.06;4982489;28;647;-82
2021/08/21 13:00:34;;;;;;;;;;;;;;;23.23;30.13;98052.00;4982799;28;906;-83
2021/08/21 13:03:11;;;;;;;;;;;;;;;23.15;29.90;98045.75;4966103;28;908;-81
2021/08/21 13:05:36;;;;;;;;;;;;;;;23.27;30.06;98059.16;4965629;29;1222;-82